Terminal Aerodrome Forecast
Issued by NWS Louisville, KY

Home | Current Version | Previous Version | Graphics & Text | Print | Product List | Glossary On
Versions: 1 2 3 4 5 6 7 8 9 10 11 12 13 14
000
FTUS43 KLMK 240500
TAFLEX
TAF
KLEX 240520Z 2406/2506 14005KT P6SM SCT200
     FM241600 17012G18KT P6SM SCT200
     FM242300 15010KT P6SM BKN200=

USA.gov is the U.S. government's official web portal to all federal, state and local government web resources and services.